createdAt,value
2022-12-06T00:01:44.296Z,81.30
2022-12-06T00:04:17.197Z,81.30
2022-12-06T00:06:48.886Z,80.80
2022-12-06T00:09:20.118Z,80.40
2022-12-06T00:11:49.235Z,80.50
2022-12-06T00:14:20.169Z,80.40
2022-12-06T00:16:49.941Z,80.30
2022-12-06T00:19:20.753Z,80.30
2022-12-06T00:21:50.239Z,80.40
2022-12-06T00:24:21.626Z,80.40
2022-12-06T00:26:51.990Z,80.50
2022-12-06T00:29:24.319Z,80.80
2022-12-06T00:31:53.702Z,81.30
2022-12-06T00:34:23.047Z,81.30
2022-12-06T00:36:52.468Z,81.50
2022-12-06T00:39:21.779Z,81.40
2022-12-06T00:41:51.076Z,81.40
2022-12-06T00:44:21.942Z,81.20
2022-12-06T00:46:51.344Z,81.10
2022-12-06T00:49:20.756Z,81.20
2022-12-06T00:51:50.036Z,81.20
2022-12-06T00:54:19.340Z,81.30
2022-12-06T00:56:48.639Z,81.30
2022-12-06T00:59:18.095Z,81.80
2022-12-06T01:01:48.910Z,82.70
2022-12-06T01:04:18.240Z,83.50
2022-12-06T01:06:47.549Z,84.20
2022-12-06T01:09:16.896Z,86.20
2022-12-06T01:11:46.013Z,86.10
2022-12-06T01:14:14.942Z,86.60
2022-12-06T01:16:43.992Z,87.10
2022-12-06T01:19:14.641Z,87.40
2022-12-06T01:21:43.629Z,87.90
2022-12-06T01:24:12.608Z,88.10
2022-12-06T01:26:41.650Z,88.30
2022-12-06T01:29:11.627Z,88.60
2022-12-06T01:31:40.569Z,88.70
2022-12-06T01:34:17.375Z,88.90
2022-12-06T01:36:46.741Z,89.10
2022-12-06T01:39:15.710Z,89.20
2022-12-06T01:41:44.744Z,89.40
2022-12-06T01:44:43.139Z,89.50
2022-12-06T01:47:19.811Z,89.70
2022-12-06T01:49:54.088Z,89.80
2022-12-06T01:52:28.610Z,89.90
2022-12-06T01:54:59.576Z,89.90
2022-12-06T01:57:31.699Z,89.90
2022-12-06T02:00:01.223Z,89.90
2022-12-06T02:02:39.755Z,89.80
2022-12-06T02:05:11.609Z,89.60
2022-12-06T02:07:41.389Z,89.80
2022-12-06T02:10:11.366Z,89.60
2022-12-06T02:12:40.363Z,89.50
2022-12-06T02:15:10.860Z,89.00
2022-12-06T02:17:47.953Z,88.70
2022-12-06T02:20:29.392Z,88.50
2022-12-06T02:23:14.198Z,88.40
2022-12-06T02:26:11.815Z,88.40
2022-12-06T02:29:22.773Z,88.20
2022-12-06T02:31:59.407Z,88.30
2022-12-06T02:34:35.237Z,88.20
2022-12-06T02:37:11.415Z,88.20
2022-12-06T02:39:46.371Z,88.30
2022-12-06T02:42:19.955Z,88.30
2022-12-06T02:44:53.254Z,87.80
2022-12-06T02:47:27.919Z,87.10
2022-12-06T02:49:58.744Z,86.80
2022-12-06T02:52:29.805Z,86.40
2022-12-06T02:55:01.326Z,86.50
2022-12-06T02:57:41.006Z,86.60
2022-12-06T03:00:34.545Z,86.60
2022-12-06T03:03:20.078Z,86.50
2022-12-06T03:06:14.275Z,86.50
2022-12-06T03:08:51.490Z,86.50
2022-12-06T03:11:20.587Z,86.70
2022-12-06T03:13:56.100Z,86.90
2022-12-06T03:16:30.208Z,87.20
2022-12-06T03:19:05.545Z,87.30
2022-12-06T03:21:38.087Z,87.30
2022-12-06T03:24:15.845Z,87.50
2022-12-06T03:26:48.020Z,87.70
2022-12-06T03:29:19.964Z,87.70
2022-12-06T03:31:50.437Z,87.70
2022-12-06T03:34:24.214Z,87.50
2022-12-06T03:37:16.101Z,87.30
2022-12-06T03:39:49.324Z,87.10
2022-12-06T03:42:20.672Z,86.70
2022-12-06T03:44:49.755Z,86.60
2022-12-06T03:47:26.249Z,86.40
2022-12-06T03:50:00.592Z,86.20
2022-12-06T03:52:31.215Z,86.00
2022-12-06T03:55:00.248Z,85.80
2022-12-06T03:57:29.327Z,85.60
2022-12-06T03:59:58.737Z,85.40
2022-12-06T04:02:28.211Z,85.30
2022-12-06T04:04:58.601Z,85.10
2022-12-06T04:07:27.596Z,84.90
2022-12-06T04:10:03.427Z,84.80
2022-12-06T04:12:52.598Z,84.60
2022-12-06T04:15:22.534Z,84.50
2022-12-06T04:18:09.166Z,84.30
2022-12-06T04:21:02.355Z,84.10
2022-12-06T04:23:33.181Z,83.90
2022-12-06T04:26:02.334Z,83.80
2022-12-06T04:28:50.173Z,83.70
2022-12-06T04:31:37.272Z,83.50
2022-12-06T04:34:23.472Z,83.50
2022-12-06T04:37:12.033Z,83.40
2022-12-06T04:39:41.181Z,83.30
2022-12-06T04:42:28.268Z,83.30
2022-12-06T04:44:57.255Z,83.00
2022-12-06T04:47:26.908Z,82.50
2022-12-06T04:49:55.898Z,82.10
2022-12-06T04:52:28.166Z,81.30
2022-12-06T04:55:02.138Z,80.30
2022-12-06T04:57:31.090Z,79.90
2022-12-06T05:00:00.383Z,79.00
2022-12-06T05:02:29.751Z,78.30
2022-12-06T05:04:58.766Z,77.50
2022-12-06T05:07:29.186Z,77.20
2022-12-06T05:09:58.585Z,76.90
2022-12-06T05:12:27.900Z,76.80
2022-12-06T05:14:56.922Z,76.30
2022-12-06T05:17:27.101Z,76.00
2022-12-06T05:19:56.172Z,75.80
2022-12-06T05:22:25.181Z,75.50
2022-12-06T05:24:55.615Z,75.40
2022-12-06T05:27:24.628Z,75.10
2022-12-06T05:29:53.575Z,74.90
2022-12-06T05:32:22.605Z,74.40
2022-12-06T05:34:51.707Z,74.10
2022-12-06T05:37:20.709Z,74.10
2022-12-06T05:39:49.687Z,73.90
2022-12-06T05:42:22.568Z,73.50
2022-12-06T05:44:51.756Z,73.00
2022-12-06T05:47:20.713Z,72.90
2022-12-06T05:49:49.747Z,72.70
2022-12-06T05:52:18.733Z,72.80
2022-12-06T05:54:47.686Z,72.80
2022-12-06T05:57:16.728Z,73.10
2022-12-06T05:59:47.162Z,73.60
2022-12-06T06:02:16.238Z,74.00
2022-12-06T06:04:45.277Z,74.40
2022-12-06T06:07:14.255Z,74.80
2022-12-06T06:09:43.216Z,75.30
2022-12-06T06:12:12.787Z,75.50
2022-12-06T06:14:41.993Z,75.70
2022-12-06T06:17:13.366Z,75.70
2022-12-06T06:19:42.328Z,75.60
2022-12-06T06:22:11.361Z,75.20
2022-12-06T06:24:42.370Z,74.80
2022-12-06T06:27:12.201Z,74.50
2022-12-06T06:29:45.349Z,74.40
2022-12-06T06:32:16.151Z,74.10
2022-12-06T06:34:45.159Z,73.80
2022-12-06T06:37:14.105Z,73.20
2022-12-06T06:39:43.079Z,72.80
2022-12-06T06:42:12.114Z,72.50
2022-12-06T06:44:41.099Z,71.60
2022-12-06T06:47:10.103Z,71.10
2022-12-06T06:49:40.973Z,71.00
2022-12-06T06:52:09.976Z,70.80
2022-12-06T06:54:38.949Z,70.90
2022-12-06T06:57:09.583Z,70.70
2022-12-06T06:59:43.081Z,70.90
2022-12-06T07:02:14.135Z,71.00
2022-12-06T07:04:45.145Z,71.00
2022-12-06T07:07:20.723Z,71.00
2022-12-06T07:09:50.122Z,70.40
2022-12-06T07:12:19.167Z,70.20
2022-12-06T07:14:48.172Z,70.10
2022-12-06T07:17:17.204Z,70.00
2022-12-06T07:19:47.777Z,70.00
2022-12-06T07:22:19.016Z,70.00
2022-12-06T07:24:52.218Z,70.10
2022-12-06T07:27:21.498Z,70.30
2022-12-06T07:29:50.546Z,70.50
2022-12-06T07:32:19.603Z,70.80
2022-12-06T07:34:50.019Z,71.20
2022-12-06T07:37:20.558Z,71.70
2022-12-06T07:39:50.464Z,72.10
2022-12-06T07:42:39.117Z,72.20
2022-12-06T07:45:09.242Z,72.10
2022-12-06T07:47:39.374Z,72.10
2022-12-06T07:50:17.840Z,72.00
2022-12-06T07:52:48.003Z,72.20
2022-12-06T07:55:18.233Z,72.40
2022-12-06T07:57:48.179Z,72.60
2022-12-06T08:00:18.158Z,73.80
2022-12-06T08:02:47.203Z,73.00
2022-12-06T08:05:17.644Z,73.40
2022-12-06T08:07:47.743Z,74.00
2022-12-06T08:10:16.771Z,74.60
2022-12-06T08:12:45.771Z,75.10
2022-12-06T08:15:14.899Z,75.50
2022-12-06T08:17:44.158Z,75.70
2022-12-06T08:20:14.021Z,75.90
2022-12-06T08:22:46.656Z,76.10
2022-12-06T08:25:24.861Z,76.20
2022-12-06T08:27:54.878Z,76.20
2022-12-06T08:30:23.993Z,76.20
2022-12-06T08:32:53.146Z,76.40
2022-12-06T08:35:22.255Z,76.30
2022-12-06T08:37:52.571Z,76.40
2022-12-06T08:40:27.327Z,76.40
2022-12-06T08:42:56.379Z,76.60
2022-12-06T08:45:25.603Z,76.70
2022-12-06T08:47:54.652Z,76.80
2022-12-06T08:50:23.634Z,76.90
2022-12-06T08:52:54.231Z,77.00
2022-12-06T08:55:23.216Z,77.20
2022-12-06T08:57:52.427Z,77.50
2022-12-06T09:00:22.113Z,78.00
2022-12-06T09:02:51.071Z,78.30
2022-12-06T09:05:20.074Z,78.80
2022-12-06T09:07:49.096Z,79.00
2022-12-06T09:10:19.645Z,79.20
2022-12-06T09:12:48.628Z,79.70
2022-12-06T09:15:17.823Z,80.20
2022-12-06T09:17:46.855Z,80.50
2022-12-06T09:20:18.281Z,81.00
2022-12-06T09:22:47.300Z,81.20
2022-12-06T09:25:16.392Z,81.40
2022-12-06T09:27:46.863Z,81.50
2022-12-06T09:30:16.506Z,82.60
2022-12-06T09:32:45.662Z,81.90
2022-12-06T09:35:15.967Z,82.00
2022-12-06T09:37:46.326Z,82.20
2022-12-06T09:40:21.466Z,82.40
2022-12-06T09:43:02.898Z,82.50
2022-12-06T09:45:46.485Z,82.60
2022-12-06T09:48:50.872Z,82.50
2022-12-06T09:51:32.842Z,82.70
2022-12-06T09:54:15.902Z,82.60
2022-12-06T09:56:51.276Z,82.70
2022-12-06T09:59:33.889Z,82.80
2022-12-06T10:02:25.563Z,83.00
2022-12-06T10:05:28.815Z,83.20
2022-12-06T10:08:06.307Z,83.20
2022-12-06T10:10:44.750Z,83.20
2022-12-06T10:13:20.685Z,83.40
2022-12-06T10:16:03.864Z,83.70
2022-12-06T10:18:51.149Z,84.10
2022-12-06T10:21:27.138Z,84.30
2022-12-06T10:24:07.985Z,84.40
2022-12-06T10:26:46.588Z,84.80
2022-12-06T10:29:27.553Z,84.90
2022-12-06T10:32:01.588Z,85.00
2022-12-06T10:34:49.358Z,85.20
2022-12-06T10:37:26.844Z,85.30
2022-12-06T10:40:00.395Z,85.40
2022-12-06T10:42:36.790Z,85.50
2022-12-06T10:45:30.777Z,85.70
2022-12-06T10:48:03.819Z,85.80
2022-12-06T10:50:36.071Z,85.90
2022-12-06T10:53:11.558Z,85.90
2022-12-06T10:55:46.975Z,85.90
2022-12-06T10:58:24.489Z,85.80
2022-12-06T11:00:57.289Z,85.70
2022-12-06T11:03:33.328Z,85.40
2022-12-06T11:06:08.548Z,84.90
2022-12-06T11:08:40.496Z,84.50
2022-12-06T11:11:16.433Z,83.90
2022-12-06T11:13:48.988Z,83.20
2022-12-06T11:16:25.690Z,82.70
2022-12-06T11:18:58.963Z,82.20
2022-12-06T11:21:32.398Z,81.70
2022-12-06T11:24:04.254Z,81.20
2022-12-06T11:26:39.207Z,80.80
2022-12-06T11:29:13.261Z,80.20
2022-12-06T11:31:46.095Z,79.60
2022-12-06T11:34:19.944Z,79.20
2022-12-06T11:36:58.191Z,79.20
2022-12-06T11:39:30.038Z,79.50
2022-12-06T11:42:01.842Z,80.00
2022-12-06T11:44:39.199Z,80.40
2022-12-06T11:47:08.898Z,80.80
2022-12-06T12:15:36.188Z,82.80
2022-12-06T12:18:05.597Z,83.10
2022-12-06T12:20:38.526Z,83.30
2022-12-06T12:23:17.386Z,83.30
2022-12-06T12:26:01.009Z,83.40
2022-12-06T12:28:32.197Z,83.50
2022-12-06T12:31:11.567Z,83.70
2022-12-06T12:33:40.537Z,83.90
2022-12-06T12:36:18.663Z,84.10
2022-12-06T12:38:55.310Z,84.20
2022-12-06T12:41:30.172Z,83.90
2022-12-06T12:44:28.828Z,83.30
2022-12-06T12:46:56.842Z,82.70
2022-12-06T12:49:29.524Z,82.00
2022-12-06T12:51:59.487Z,81.80
2022-12-06T12:54:32.152Z,82.10
2022-12-06T12:57:03.474Z,82.40
2022-12-06T12:59:38.945Z,82.80
2022-12-06T13:02:19.621Z,83.10
2022-12-06T13:05:05.239Z,83.40
2022-12-06T13:07:43.870Z,83.70
2022-12-06T13:10:20.390Z,84.00
2022-12-06T13:12:54.035Z,84.30
2022-12-06T13:15:30.115Z,84.50
2022-12-06T13:18:06.714Z,84.80
2022-12-06T13:20:37.508Z,85.00
2022-12-06T13:23:10.650Z,85.20
2022-12-06T13:25:39.744Z,85.50
2022-12-06T13:28:17.645Z,85.70
2022-12-06T13:30:55.391Z,85.80
2022-12-06T13:33:28.566Z,86.00
2022-12-06T13:36:02.192Z,86.40
2022-12-06T13:38:33.354Z,86.50
2022-12-06T13:41:03.209Z,86.80
2022-12-06T13:43:59.002Z,86.90
2022-12-06T13:46:33.306Z,87.10
2022-12-06T13:49:06.483Z,87.20
2022-12-06T13:51:49.098Z,87.30
2022-12-06T13:54:39.071Z,87.50
2022-12-06T13:57:31.925Z,87.50
2022-12-06T14:00:01.355Z,87.60
2022-12-06T14:02:51.436Z,87.50
2022-12-06T14:06:06.093Z,87.80
2022-12-06T14:08:40.869Z,87.90
2022-12-06T14:11:22.806Z,87.80
2022-12-06T14:14:03.682Z,87.80
2022-12-06T14:16:36.846Z,87.70
2022-12-06T14:19:15.695Z,88.50
2022-12-06T14:21:53.450Z,87.70
2022-12-06T14:24:41.697Z,87.90
2022-12-06T14:27:15.666Z,88.00
2022-12-06T14:29:59.415Z,88.00
2022-12-06T14:32:33.992Z,88.20
2022-12-06T14:35:04.811Z,88.20
2022-12-06T14:37:35.372Z,88.20
2022-12-06T14:40:43.862Z,88.10
2022-12-06T14:43:17.372Z,88.10
2022-12-06T14:45:47.558Z,87.90
2022-12-06T14:48:17.019Z,87.80
2022-12-06T14:50:50.211Z,87.70
2022-12-06T14:53:31.397Z,87.70
2022-12-06T14:56:02.687Z,87.60
2022-12-06T14:58:32.287Z,87.60
2022-12-06T15:01:03.893Z,87.50
2022-12-06T15:03:34.079Z,87.10
2022-12-06T15:06:16.763Z,87.20
2022-12-06T15:08:53.490Z,87.40
2022-12-06T15:11:48.385Z,87.50
2022-12-06T15:14:19.837Z,87.70
2022-12-06T15:16:59.240Z,87.80
2022-12-06T15:19:29.819Z,88.00
2022-12-06T15:22:00.848Z,88.20
2022-12-06T15:24:32.299Z,88.30
2022-12-06T15:27:01.288Z,88.20
2022-12-06T15:29:30.267Z,87.90
2022-12-06T15:31:59.528Z,87.70
2022-12-06T15:34:30.792Z,87.30
2022-12-06T15:37:36.471Z,87.00
2022-12-06T15:39:50.520Z,86.70
2022-12-06T15:42:21.518Z,86.50
2022-12-06T15:44:51.417Z,86.00
2022-12-06T15:47:20.823Z,85.70
2022-12-06T15:49:51.931Z,85.50
2022-12-06T15:52:24.393Z,85.30
2022-12-06T15:54:54.779Z,85.00
2022-12-06T15:57:23.798Z,84.90
2022-12-06T15:59:52.749Z,84.80
2022-12-06T16:02:21.970Z,84.80
2022-12-06T16:04:52.068Z,84.80
2022-12-06T16:07:21.298Z,84.80
2022-12-06T16:09:50.246Z,84.80
2022-12-06T16:12:20.639Z,84.90
2022-12-06T16:14:49.707Z,84.90
2022-12-06T16:17:19.327Z,85.00
2022-12-06T16:20:05.434Z,85.10
2022-12-06T16:22:51.829Z,85.20
2022-12-06T16:25:20.928Z,85.30
2022-12-06T16:27:51.313Z,85.40
2022-12-06T16:30:32.148Z,85.60
2022-12-06T16:33:07.161Z,85.60
2022-12-06T16:35:36.589Z,85.60
2022-12-06T16:38:05.617Z,85.70
2022-12-06T16:44:55.569Z,85.80
2022-12-06T16:49:52.375Z,85.90
2022-12-06T16:52:21.435Z,86.00
2022-12-06T16:54:51.580Z,86.00
2022-12-06T16:57:21.023Z,86.00
2022-12-06T16:59:50.442Z,86.00
2022-12-06T17:02:30.118Z,86.10
2022-12-06T17:05:02.371Z,86.10
2022-12-06T17:07:31.899Z,86.10
2022-12-06T17:10:01.519Z,86.20
2022-12-06T17:12:30.624Z,86.50
2022-12-06T17:15:01.042Z,86.40
2022-12-06T17:17:31.757Z,86.40
2022-12-06T17:20:00.879Z,86.50
2022-12-06T17:22:30.006Z,86.40
2022-12-06T17:24:59.305Z,86.50
2022-12-06T17:27:28.571Z,86.50
2022-12-06T17:29:57.546Z,86.50
2022-12-06T17:32:27.167Z,86.40
2022-12-06T17:34:57.580Z,86.20
2022-12-06T17:37:26.609Z,86.20
2022-12-06T17:39:55.672Z,86.20
2022-12-06T17:42:42.402Z,86.20
2022-12-06T17:45:11.934Z,86.20
2022-12-06T17:47:43.352Z,86.20
2022-12-06T17:50:14.297Z,86.20
2022-12-06T17:52:43.322Z,86.50
2022-12-06T17:55:14.960Z,86.50
2022-12-06T17:57:45.459Z,86.50
2022-12-06T18:00:18.190Z,86.60
2022-12-06T18:02:48.776Z,86.50
2022-12-06T18:05:19.434Z,86.50
2022-12-06T18:07:48.669Z,86.40
2022-12-06T18:10:17.947Z,86.50
2022-12-06T18:12:47.039Z,86.50
2022-12-06T18:15:29.979Z,86.60
2022-12-06T18:17:58.968Z,86.80
2022-12-06T18:20:29.319Z,86.60
2022-12-06T18:22:58.284Z,86.60
2022-12-06T18:25:27.233Z,86.70
2022-12-06T18:27:56.296Z,86.60
2022-12-06T18:30:25.271Z,86.60
2022-12-06T18:32:54.352Z,86.50
2022-12-06T18:35:23.395Z,86.50
2022-12-06T18:37:54.071Z,86.40
2022-12-06T18:40:23.141Z,86.30
2022-12-06T18:42:52.473Z,86.30
2022-12-06T18:45:21.602Z,86.30
2022-12-06T18:47:50.759Z,86.30
2022-12-06T18:50:19.882Z,86.30
2022-12-06T18:52:48.935Z,86.50
2022-12-06T18:55:19.365Z,86.60
2022-12-06T18:57:48.613Z,86.60
2022-12-06T19:00:18.234Z,86.60
2022-12-06T19:02:47.360Z,86.70
2022-12-06T19:05:32.886Z,86.60
2022-12-06T19:08:06.776Z,86.70
2022-12-06T19:10:37.725Z,86.60
2022-12-06T19:13:06.780Z,86.60
2022-12-06T19:15:35.831Z,86.70
2022-12-06T19:18:06.014Z,86.70
2022-12-06T19:20:35.006Z,86.70
2022-12-06T19:23:13.784Z,86.70
2022-12-06T19:25:44.161Z,86.70
2022-12-06T19:28:14.892Z,86.70
2022-12-06T19:30:43.961Z,86.80
2022-12-06T19:33:13.088Z,86.70
2022-12-06T19:35:42.336Z,86.70
2022-12-06T19:38:15.147Z,86.80
2022-12-06T19:40:45.535Z,86.70
2022-12-06T19:43:31.852Z,86.70
2022-12-06T19:46:09.940Z,86.80
2022-12-06T19:48:39.142Z,86.80
2022-12-06T19:51:09.033Z,86.80
2022-12-06T19:53:39.977Z,86.80
2022-12-06T19:56:12.575Z,86.70
2022-12-06T19:58:42.034Z,86.80
2022-12-06T20:01:14.808Z,86.80
2022-12-06T20:03:47.243Z,86.80
2022-12-06T20:06:18.274Z,86.80
2022-12-06T20:08:48.411Z,87.00
2022-12-06T20:11:38.572Z,87.00
2022-12-06T20:14:09.742Z,87.10
2022-12-06T20:16:38.956Z,87.30
2022-12-06T20:19:08.320Z,87.40
2022-12-06T20:21:37.347Z,87.20
2022-12-06T20:24:06.801Z,87.20
2022-12-06T20:26:37.264Z,87.20
2022-12-06T20:29:06.778Z,87.30
2022-12-06T20:31:36.011Z,87.40
2022-12-06T20:34:13.134Z,87.50
2022-12-06T20:36:44.027Z,87.60
2022-12-06T20:39:20.888Z,87.60
2022-12-06T20:41:54.910Z,87.80
2022-12-06T20:44:24.243Z,87.80
2022-12-06T20:46:54.378Z,87.90
2022-12-06T20:49:24.690Z,87.80
2022-12-06T20:51:53.961Z,87.90
2022-12-06T20:54:23.998Z,87.90
2022-12-06T20:56:58.589Z,87.90
2022-12-06T20:59:29.390Z,87.90
2022-12-06T21:01:58.570Z,88.00
2022-12-06T21:04:29.120Z,88.10
2022-12-06T21:06:58.194Z,88.20
2022-12-06T21:09:27.226Z,88.30
2022-12-06T21:11:58.768Z,88.20
2022-12-06T21:14:36.469Z,88.30
2022-12-06T21:17:06.135Z,88.30
2022-12-06T21:19:35.167Z,88.20
2022-12-06T21:22:08.163Z,88.20
2022-12-06T21:24:38.079Z,88.20
2022-12-06T21:27:08.872Z,88.20
2022-12-06T21:29:39.042Z,88.30
2022-12-06T21:32:08.207Z,88.30
2022-12-06T21:34:43.044Z,88.30
2022-12-06T21:37:15.312Z,88.30
2022-12-06T21:39:46.400Z,89.20
2022-12-06T21:42:17.628Z,88.30
2022-12-06T21:44:46.383Z,88.50
2022-12-06T21:47:15.284Z,88.50
2022-12-06T21:49:44.271Z,88.50
2022-12-06T21:52:13.888Z,88.60
2022-12-06T21:54:42.856Z,88.70
2022-12-06T21:57:11.998Z,88.80
2022-12-06T21:59:42.382Z,89.00
2022-12-06T22:02:11.874Z,89.10
2022-12-06T22:04:40.976Z,89.20
2022-12-06T22:07:09.946Z,89.20
2022-12-06T22:09:38.962Z,89.20
2022-12-06T22:12:08.137Z,89.20
2022-12-06T22:14:37.089Z,89.10
2022-12-06T22:17:07.565Z,89.10
2022-12-06T22:19:36.560Z,89.00
2022-12-06T22:22:05.580Z,89.00
2022-12-06T22:24:34.825Z,89.10
2022-12-06T22:27:03.906Z,89.10
2022-12-06T22:29:32.979Z,89.20
2022-12-06T22:32:02.192Z,89.40
2022-12-06T22:34:32.785Z,89.60
2022-12-06T22:37:01.785Z,89.80
2022-12-06T22:39:30.817Z,89.80
2022-12-06T22:41:59.786Z,89.70
2022-12-06T22:44:28.763Z,89.50
2022-12-06T22:46:57.863Z,89.30
2022-12-06T22:49:27.040Z,89.20
2022-12-06T22:51:57.485Z,89.30
2022-12-06T22:54:26.492Z,89.10
2022-12-06T22:56:56.793Z,89.00
2022-12-06T22:59:25.783Z,88.90
2022-12-06T23:01:54.785Z,88.80
2022-12-06T23:04:23.762Z,88.80
2022-12-06T23:06:52.775Z,88.80
2022-12-06T23:09:23.204Z,88.80
2022-12-06T23:11:52.217Z,88.80
2022-12-06T23:14:21.227Z,88.70
2022-12-06T23:16:50.270Z,88.60
2022-12-06T23:19:19.420Z,88.60
2022-12-06T23:21:48.415Z,88.70
2022-12-06T23:24:17.897Z,88.80
2022-12-06T23:26:54.611Z,88.80
2022-12-06T23:29:26.849Z,88.80
2022-12-06T23:31:55.982Z,88.80
2022-12-06T23:34:26.689Z,88.70
2022-12-06T23:36:57.257Z,88.90
2022-12-06T23:39:26.596Z,89.10
2022-12-06T23:41:57.042Z,89.10
2022-12-06T23:44:26.418Z,89.10
2022-12-06T23:46:55.485Z,89.10
2022-12-06T23:49:24.648Z,88.90
2022-12-06T23:51:53.639Z,88.80
2022-12-06T23:54:22.604Z,88.70
2022-12-06T23:56:51.618Z,88.70
2022-12-06T23:59:22.000Z,88.60
